createdAt,value
2019-03-27T00:03:49.543Z,21.73
2019-03-27T00:06:33.280Z,16.60
2019-03-27T00:09:17.258Z,20.30
2019-03-27T00:12:08.875Z,15.03
2019-03-27T00:14:51.571Z,20.85
2019-03-27T00:17:43.300Z,17.37
2019-03-27T00:20:28.466Z,18.37
2019-03-27T00:23:20.157Z,15.58
2019-03-27T00:26:04.551Z,21.25
2019-03-27T00:28:56.307Z,16.77
2019-03-27T00:31:29.162Z,18.50
2019-03-27T00:34:01.943Z,17.85
2019-03-27T00:36:45.767Z,16.62
2019-03-27T00:39:37.884Z,19.12
2019-03-27T00:42:22.136Z,22.90
2019-03-27T00:45:26.000Z,21.42
2019-03-27T00:48:04.999Z,17.75
2019-03-27T00:50:56.639Z,16.95
2019-03-27T00:53:40.880Z,22.30
2019-03-27T00:56:32.565Z,17.35
2019-03-27T00:59:19.211Z,20.00
2019-03-27T01:02:10.324Z,23.60
2019-03-27T01:04:55.457Z,18.62
2019-03-27T01:07:39.484Z,14.15
2019-03-27T01:10:31.329Z,16.82
2019-03-27T01:13:15.772Z,19.25
2019-03-27T01:16:07.479Z,19.80
2019-03-27T01:18:51.642Z,38.15
2019-03-27T01:21:43.270Z,20.30
2019-03-27T01:24:27.530Z,24.07
2019-03-27T01:27:19.132Z,23.77
2019-03-27T01:30:04.893Z,24.85
2019-03-27T01:32:56.518Z,19.45
2019-03-27T01:35:41.225Z,21.60
2019-03-27T01:38:32.747Z,23.47
2019-03-27T01:41:16.721Z,23.02
2019-03-27T01:44:08.458Z,23.32
2019-03-27T01:46:52.985Z,23.55
2019-03-27T01:49:44.680Z,25.80
2019-03-27T01:52:28.741Z,23.27
2019-03-27T01:55:20.378Z,24.98
2019-03-27T01:58:04.113Z,23.57
2019-03-27T02:00:55.916Z,22.20
2019-03-27T02:03:40.342Z,18.40
2019-03-27T02:06:32.271Z,21.80
2019-03-27T02:09:16.532Z,20.80
2019-03-27T02:12:00.479Z,20.17
2019-03-27T02:14:44.845Z,19.55
2019-03-27T02:17:29.689Z,19.90
2019-03-27T02:20:21.802Z,22.35
2019-03-27T02:23:05.870Z,23.02
2019-03-27T02:25:57.610Z,20.75
2019-03-27T02:28:30.551Z,23.62
2019-03-27T02:31:22.239Z,20.40
2019-03-27T02:34:06.873Z,27.30
2019-03-27T02:36:57.819Z,22.75
2019-03-27T02:39:41.796Z,26.77
2019-03-27T02:42:33.496Z,25.77
2019-03-27T02:45:17.643Z,21.37
2019-03-27T02:48:09.475Z,23.83
2019-03-27T02:50:42.699Z,22.60
2019-03-27T02:53:34.331Z,25.15
2019-03-27T02:56:18.458Z,23.42
2019-03-27T02:59:10.073Z,24.82
2019-03-27T03:01:53.861Z,26.93
2019-03-27T03:04:45.766Z,22.65
2019-03-27T03:07:30.873Z,23.90
2019-03-27T03:10:22.587Z,24.60
2019-03-27T03:13:14.323Z,28.00
2019-03-27T03:15:47.141Z,24.30
2019-03-27T03:18:38.685Z,23.20
2019-03-27T03:21:23.860Z,24.95
2019-03-27T03:24:15.769Z,31.25
2019-03-27T03:26:59.448Z,28.90
2019-03-27T03:29:51.160Z,21.87
2019-03-27T03:32:35.303Z,24.90
2019-03-27T03:35:27.850Z,21.55
2019-03-27T03:38:11.546Z,26.80
2019-03-27T03:41:04.224Z,25.32
2019-03-27T03:43:48.224Z,27.05
2019-03-27T03:46:40.065Z,28.73
2019-03-27T03:49:13.057Z,24.23
2019-03-27T03:51:57.396Z,25.43
2019-03-27T03:54:41.514Z,31.55
2019-03-27T03:57:33.284Z,25.45
2019-03-27T04:00:17.618Z,28.17
2019-03-27T04:03:09.618Z,28.20
2019-03-27T04:05:54.818Z,28.95
2019-03-27T04:08:46.568Z,28.10
2019-03-27T04:11:30.475Z,30.10
2019-03-27T04:14:22.109Z,23.95
2019-03-27T04:17:17.088Z,27.32
2019-03-27T04:23:23.677Z,20.30
2019-03-27T04:26:15.474Z,25.20
2019-03-27T04:28:59.189Z,25.30
2019-03-27T04:31:50.769Z,30.72
2019-03-27T04:34:34.997Z,28.95
2019-03-27T04:37:26.649Z,27.55
2019-03-27T04:40:10.642Z,28.10
2019-03-27T04:43:02.673Z,34.73
2019-03-27T04:45:46.984Z,32.17
2019-03-27T04:48:20.067Z,33.67
2019-03-27T04:51:03.930Z,31.37
2019-03-27T04:53:36.827Z,36.05
2019-03-27T04:56:21.419Z,27.20
2019-03-27T04:59:13.103Z,29.60
2019-03-27T05:01:46.046Z,34.23
2019-03-27T05:04:30.210Z,35.68
2019-03-27T05:07:21.975Z,28.23
2019-03-27T05:10:07.253Z,33.20
2019-03-27T05:12:58.961Z,31.05
2019-03-27T05:15:44.203Z,37.38
2019-03-27T05:18:35.965Z,32.00
2019-03-27T05:21:20.138Z,29.55
2019-03-27T05:24:11.653Z,26.07
2019-03-27T05:26:55.410Z,37.30
2019-03-27T05:29:47.093Z,29.02
2019-03-27T05:32:31.460Z,27.98
2019-03-27T05:35:23.247Z,34.05
2019-03-27T05:38:06.769Z,38.17
2019-03-27T05:40:58.383Z,31.52
2019-03-27T05:43:31.340Z,33.35
2019-03-27T05:46:22.968Z,39.42
2019-03-27T05:49:16.319Z,33.55
2019-03-27T05:52:07.947Z,27.77
2019-03-27T05:54:52.215Z,37.78
2019-03-27T05:57:43.959Z,36.70
2019-03-27T06:00:28.535Z,34.53
2019-03-27T06:03:20.171Z,34.50
2019-03-27T06:06:04.662Z,38.02
2019-03-27T06:08:48.870Z,42.45
2019-03-27T06:11:40.565Z,34.20
2019-03-27T06:14:26.288Z,38.02
2019-03-27T06:17:17.927Z,43.83
2019-03-27T06:19:50.856Z,33.45
2019-03-27T06:22:42.882Z,38.25
2019-03-27T06:25:16.682Z,36.50
2019-03-27T06:27:49.760Z,38.88
2019-03-27T06:30:34.750Z,42.48
2019-03-27T06:33:18.634Z,39.67
2019-03-27T06:36:10.602Z,40.03
2019-03-27T06:38:56.156Z,40.65
2019-03-27T06:41:47.796Z,38.73
2019-03-27T06:44:32.180Z,38.10
2019-03-27T06:47:23.881Z,47.45
2019-03-27T06:50:08.161Z,38.40
2019-03-27T06:52:59.941Z,40.23
2019-03-27T06:55:42.646Z,42.25
2019-03-27T06:58:34.301Z,37.90
2019-03-27T07:01:19.227Z,38.10
2019-03-27T07:04:11.152Z,40.12
2019-03-27T07:06:55.574Z,36.90
2019-03-27T07:09:47.236Z,42.15
2019-03-27T07:12:32.376Z,37.83
2019-03-27T07:15:15.523Z,45.15
2019-03-27T07:18:07.347Z,37.98
2019-03-27T07:20:41.192Z,34.78
2019-03-27T07:23:33.675Z,35.17
2019-03-27T07:26:06.558Z,38.78
2019-03-27T07:28:58.633Z,43.52
2019-03-27T07:31:31.783Z,35.80
2019-03-27T07:34:23.549Z,52.73
2019-03-27T07:36:56.437Z,44.80
2019-03-27T07:39:47.225Z,49.30
2019-03-27T07:42:19.899Z,39.78
2019-03-27T07:44:52.795Z,39.63
2019-03-27T07:47:25.687Z,40.25
2019-03-27T07:49:58.547Z,37.42
2019-03-27T07:52:31.516Z,41.13
2019-03-27T07:55:18.462Z,41.45
2019-03-27T07:57:39.337Z,39.00
2019-03-27T08:00:34.079Z,39.90
2019-03-27T08:03:07.001Z,38.63
2019-03-27T08:05:39.940Z,40.03
2019-03-27T08:08:12.762Z,36.98
2019-03-27T08:10:45.756Z,39.80
2019-03-27T08:13:18.678Z,42.17
2019-03-27T08:15:51.836Z,41.65
2019-03-27T08:18:25.675Z,39.15
2019-03-27T08:20:58.512Z,48.73
2019-03-27T08:23:31.155Z,36.13
2019-03-27T08:26:04.459Z,44.33
2019-03-27T08:28:37.177Z,38.92
2019-03-27T08:31:10.068Z,41.00
2019-03-27T08:33:42.976Z,40.38
2019-03-27T08:36:34.720Z,42.10
2019-03-27T08:39:19.790Z,49.27
2019-03-27T08:42:03.496Z,40.55
2019-03-27T08:44:36.149Z,31.85
2019-03-27T08:47:20.435Z,35.30
2019-03-27T08:50:04.404Z,33.18
2019-03-27T08:52:48.717Z,36.10
2019-03-27T08:55:40.320Z,36.55
2019-03-27T08:58:13.136Z,36.83
2019-03-27T09:01:04.903Z,38.30
2019-03-27T09:03:48.874Z,32.85
2019-03-27T09:06:33.997Z,35.28
2019-03-27T09:09:19.612Z,32.35
2019-03-27T09:12:11.238Z,36.45
2019-03-27T09:14:55.086Z,31.30
2019-03-27T09:17:39.870Z,38.98
2019-03-27T09:20:31.626Z,33.95
2019-03-27T09:23:16.325Z,30.80
2019-03-27T09:26:07.948Z,43.83
2019-03-27T09:28:52.595Z,30.88
2019-03-27T09:31:45.423Z,34.45
2019-03-27T09:34:35.536Z,31.82
2019-03-27T09:37:27.271Z,33.33
2019-03-27T09:40:11.502Z,46.63
2019-03-27T09:43:03.236Z,37.67
2019-03-27T09:45:47.639Z,33.40
2019-03-27T09:48:39.244Z,32.73
2019-03-27T09:51:24.089Z,29.18
2019-03-27T09:54:16.090Z,33.15
2019-03-27T09:57:00.008Z,31.55
2019-03-27T09:59:43.639Z,23.65
2019-03-27T10:02:35.595Z,28.23
2019-03-27T10:05:20.216Z,33.48
2019-03-27T10:08:11.897Z,27.60
2019-03-27T10:10:56.271Z,30.62
2019-03-27T10:13:48.064Z,23.55
2019-03-27T10:16:20.985Z,25.85
2019-03-27T10:19:12.940Z,26.10
2019-03-27T10:21:56.069Z,37.85
2019-03-27T10:27:22.069Z,19.52
2019-03-27T10:30:13.734Z,19.90
2019-03-27T10:32:58.902Z,20.62
2019-03-27T10:35:50.687Z,16.55
2019-03-27T10:38:35.527Z,13.13
2019-03-27T10:41:27.355Z,16.95
2019-03-27T10:44:11.261Z,19.65
2019-03-27T10:47:03.020Z,17.98
2019-03-27T10:49:46.716Z,16.70
2019-03-27T10:52:39.353Z,19.60
2019-03-27T10:55:25.781Z,19.45
2019-03-27T10:57:59.223Z,16.05
2019-03-27T11:00:51.199Z,20.52
2019-03-27T11:03:44.805Z,24.12
2019-03-27T11:06:17.585Z,15.43
2019-03-27T11:09:04.566Z,15.65
2019-03-27T11:11:56.471Z,23.00
2019-03-27T11:14:41.967Z,17.40
2019-03-27T11:17:34.132Z,16.77
2019-03-27T11:20:30.233Z,17.17
2019-03-27T11:22:53.326Z,18.73
2019-03-27T11:25:45.120Z,22.87
2019-03-27T11:28:32.111Z,32.23
2019-03-27T11:31:36.396Z,20.45
2019-03-27T11:34:15.007Z,17.98
2019-03-27T11:37:07.301Z,23.77
2019-03-27T11:39:40.179Z,22.52
2019-03-27T11:42:13.208Z,22.98
2019-03-27T11:44:57.930Z,14.55
2019-03-27T11:47:49.734Z,14.23
2019-03-27T11:50:22.603Z,14.40
2019-03-27T11:53:14.345Z,17.85
2019-03-27T11:55:58.785Z,21.27
2019-03-27T11:58:50.555Z,12.55
2019-03-27T12:01:23.536Z,16.87
2019-03-27T12:04:20.840Z,21.85
2019-03-27T12:07:05.047Z,13.93
2019-03-27T12:09:56.877Z,15.93
2019-03-27T12:12:40.813Z,11.95
2019-03-27T12:18:52.206Z,15.93
2019-03-27T12:21:37.270Z,12.37
2019-03-27T12:24:29.025Z,14.18
2019-03-27T12:27:13.090Z,11.90
2019-03-27T12:30:06.023Z,9.73
2019-03-27T12:32:50.513Z,9.53
2019-03-27T12:35:34.347Z,11.53
2019-03-27T12:38:26.181Z,13.72
2019-03-27T12:40:59.163Z,12.55
2019-03-27T12:43:43.122Z,14.00
2019-03-27T12:46:34.694Z,11.65
2019-03-27T12:49:19.200Z,13.55
2019-03-27T12:52:05.561Z,9.85
2019-03-27T12:54:50.139Z,11.38
2019-03-27T12:57:41.790Z,11.53
2019-03-27T13:00:26.195Z,9.73
2019-03-27T13:03:17.858Z,11.38
2019-03-27T13:06:02.305Z,16.15
2019-03-27T13:08:54.119Z,10.58
2019-03-27T13:11:26.947Z,18.10
2019-03-27T13:14:18.661Z,8.18
2019-03-27T13:16:52.406Z,9.13
2019-03-27T13:19:57.070Z,12.05
2019-03-27T13:22:48.978Z,11.53
2019-03-27T13:28:48.244Z,12.85
2019-03-27T13:31:31.507Z,9.38
2019-03-27T13:34:17.027Z,10.43
2019-03-27T13:37:36.454Z,11.20
2019-03-27T13:40:26.635Z,11.45
2019-03-27T13:43:24.447Z,10.38
2019-03-27T13:46:11.547Z,11.93
2019-03-27T13:52:10.899Z,11.60
2019-03-27T13:54:44.208Z,9.25
2019-03-27T13:57:36.052Z,10.95
2019-03-27T14:00:20.578Z,14.95
2019-03-27T14:02:53.518Z,9.95
2019-03-27T14:05:37.821Z,7.83
2019-03-27T14:08:29.753Z,12.50
2019-03-27T14:11:02.538Z,8.20
2019-03-27T14:13:35.360Z,10.00
2019-03-27T14:16:20.799Z,12.25
2019-03-27T14:19:13.608Z,15.88
2019-03-27T14:21:58.999Z,9.75
2019-03-27T14:24:43.045Z,9.13
2019-03-27T14:27:27.224Z,7.85
2019-03-27T14:30:11.766Z,9.60
2019-03-27T14:33:03.652Z,8.45
2019-03-27T14:35:48.101Z,12.28
2019-03-27T14:38:39.741Z,10.50
2019-03-27T14:41:24.618Z,13.55
2019-03-27T14:44:17.816Z,5.58
2019-03-27T14:47:02.758Z,6.75
2019-03-27T14:49:54.617Z,6.80
2019-03-27T14:52:39.815Z,7.17
2019-03-27T14:55:31.476Z,5.78
2019-03-27T14:58:16.141Z,10.53
2019-03-27T15:01:07.839Z,8.78
2019-03-27T15:03:51.686Z,7.05
2019-03-27T15:06:43.532Z,7.03
2019-03-27T15:09:27.480Z,9.75
2019-03-27T15:12:19.280Z,9.00
2019-03-27T15:15:03.494Z,7.50
2019-03-27T15:17:48.616Z,8.43
2019-03-27T15:20:40.678Z,9.45
2019-03-27T15:23:25.379Z,8.45
2019-03-27T15:26:09.380Z,8.70
2019-03-27T15:29:01.083Z,7.72
2019-03-27T15:31:44.810Z,12.65
2019-03-27T15:34:36.537Z,8.28
2019-03-27T15:37:20.369Z,11.95
2019-03-27T15:40:12.685Z,11.00
2019-03-27T15:43:18.862Z,8.78
2019-03-27T15:45:51.725Z,9.45
2019-03-27T15:48:35.754Z,5.75
2019-03-27T15:51:27.416Z,7.62
2019-03-27T15:54:12.190Z,9.85
2019-03-27T15:57:04.973Z,7.80
2019-03-27T15:59:49.648Z,6.78
2019-03-27T16:02:44.169Z,7.97
2019-03-27T16:05:29.308Z,10.93
2019-03-27T16:08:21.313Z,5.40
2019-03-27T16:10:54.376Z,6.55
2019-03-27T16:13:46.118Z,8.05
2019-03-27T16:16:30.059Z,7.35
2019-03-27T16:19:03.177Z,8.50
2019-03-27T16:21:47.378Z,9.73
2019-03-27T16:24:39.007Z,8.53
2019-03-27T16:27:23.031Z,8.68
2019-03-27T16:29:55.960Z,6.80
2019-03-27T16:32:40.392Z,6.65
2019-03-27T16:35:24.615Z,7.95
2019-03-27T16:38:16.709Z,9.05
2019-03-27T16:40:50.324Z,6.30
2019-03-27T16:43:35.162Z,12.73
2019-03-27T16:46:08.756Z,6.05
2019-03-27T16:48:52.946Z,5.60
2019-03-27T16:51:57.312Z,6.97
2019-03-27T16:54:36.103Z,4.75
2019-03-27T16:57:27.834Z,5.35
2019-03-27T17:00:00.595Z,5.28
2019-03-27T17:02:33.630Z,7.90
2019-03-27T17:05:17.452Z,6.80
2019-03-27T17:08:09.501Z,5.87
2019-03-27T17:10:53.282Z,6.87
2019-03-27T17:13:45.045Z,4.03
2019-03-27T17:16:29.661Z,5.50
2019-03-27T17:19:13.417Z,4.40
2019-03-27T17:21:58.676Z,3.70
2019-03-27T17:24:31.574Z,6.22
2019-03-27T17:27:04.562Z,5.85
2019-03-27T17:29:56.513Z,4.92
2019-03-27T17:32:41.905Z,4.85
2019-03-27T17:38:17.792Z,5.95
2019-03-27T17:41:02.470Z,9.30
2019-03-27T17:43:35.816Z,6.90
2019-03-27T17:46:09.088Z,6.80
2019-03-27T17:49:01.354Z,8.28
2019-03-27T17:51:45.829Z,8.90
2019-03-27T17:54:37.487Z,6.78
2019-03-27T17:57:22.144Z,6.00
2019-03-27T18:00:08.545Z,4.47
2019-03-27T18:03:00.377Z,8.78
2019-03-27T18:05:44.246Z,6.30
2019-03-27T18:08:17.405Z,6.35
2019-03-27T18:11:04.172Z,6.37
2019-03-27T18:13:55.793Z,5.90
2019-03-27T18:16:37.692Z,8.13
2019-03-27T18:19:21.972Z,8.88
2019-03-27T18:22:13.710Z,12.28
2019-03-27T18:24:57.619Z,8.23
2019-03-27T18:27:50.139Z,4.62
2019-03-27T18:30:35.231Z,6.70
2019-03-27T18:33:19.262Z,7.12
2019-03-27T18:36:10.965Z,6.80
2019-03-27T18:38:55.214Z,10.28
2019-03-27T18:41:38.996Z,9.00
2019-03-27T18:44:30.733Z,10.00
2019-03-27T18:47:15.004Z,8.38
2019-03-27T18:50:07.118Z,6.70
2019-03-27T18:52:50.970Z,8.88
2019-03-27T18:55:42.568Z,5.75
2019-03-27T18:58:26.433Z,7.92
2019-03-27T19:01:18.179Z,5.22
2019-03-27T19:04:03.357Z,9.00
2019-03-27T19:06:58.469Z,7.30
2019-03-27T19:09:58.603Z,11.63
2019-03-27T19:12:50.226Z,9.78
2019-03-27T19:15:33.857Z,8.85
2019-03-27T19:18:25.432Z,10.72
2019-03-27T19:21:09.587Z,11.83
2019-03-27T19:24:13.175Z,6.65
2019-03-27T19:27:06.071Z,9.80
2019-03-27T19:29:57.837Z,7.58
2019-03-27T19:32:42.286Z,9.60
2019-03-27T19:35:33.985Z,9.75
2019-03-27T19:38:17.886Z,9.88
2019-03-27T19:41:09.669Z,8.68
2019-03-27T19:43:54.002Z,5.60
2019-03-27T19:46:45.761Z,7.22
2019-03-27T19:49:29.853Z,9.08
2019-03-27T19:52:21.651Z,10.13
2019-03-27T19:55:06.892Z,10.18
2019-03-27T19:57:58.768Z,13.70
2019-03-27T20:00:42.626Z,6.45
2019-03-27T20:03:34.891Z,7.25
2019-03-27T20:06:39.616Z,9.65
2019-03-27T20:09:31.255Z,8.43
2019-03-27T20:12:15.743Z,8.68
2019-03-27T20:14:48.637Z,5.30
2019-03-27T20:17:32.379Z,11.63
2019-03-27T20:20:24.108Z,8.38
2019-03-27T20:23:14.955Z,8.65
2019-03-27T20:26:01.919Z,12.47
2019-03-27T20:28:46.309Z,9.18
2019-03-27T20:31:38.016Z,8.73
2019-03-27T20:34:22.963Z,10.18
2019-03-27T20:37:14.592Z,10.93
2019-03-27T20:39:47.226Z,6.28
2019-03-27T20:42:38.893Z,8.30
2019-03-27T20:45:23.971Z,6.62
2019-03-27T20:48:15.692Z,7.60
2019-03-27T20:51:00.269Z,10.25
2019-03-27T20:53:52.083Z,8.58
2019-03-27T20:56:36.489Z,11.43
2019-03-27T20:59:28.281Z,10.70
2019-03-27T21:02:12.513Z,10.98
2019-03-27T21:05:04.314Z,7.95
2019-03-27T21:07:48.803Z,11.25
2019-03-27T21:10:40.553Z,10.95
2019-03-27T21:13:24.988Z,6.47
2019-03-27T21:16:16.703Z,13.10
2019-03-27T21:19:00.748Z,8.28
2019-03-27T21:21:52.249Z,11.33
2019-03-27T21:24:36.104Z,15.83
2019-03-27T21:27:28.768Z,9.55
2019-03-27T21:30:12.919Z,10.70
2019-03-27T21:33:04.625Z,16.42
2019-03-27T21:35:49.820Z,8.85
2019-03-27T21:38:41.459Z,10.43
2019-03-27T21:41:25.926Z,12.55
2019-03-27T21:44:17.530Z,8.00
2019-03-27T21:47:01.391Z,21.95
2019-03-27T21:49:53.078Z,11.18
2019-03-27T21:52:36.733Z,13.38
2019-03-27T21:55:22.897Z,12.10
2019-03-27T21:58:14.039Z,12.58
2019-03-27T22:00:58.691Z,12.20
2019-03-27T22:03:50.383Z,12.23
2019-03-27T22:06:34.561Z,10.60
2019-03-27T22:09:26.037Z,14.50
2019-03-27T22:12:09.711Z,11.53
2019-03-27T22:14:42.893Z,12.07
2019-03-27T22:17:27.058Z,9.30
2019-03-27T22:20:18.821Z,13.40
2019-03-27T22:23:02.559Z,11.35
2019-03-27T22:25:54.174Z,12.58
2019-03-27T22:28:39.275Z,10.95
2019-03-27T22:31:23.893Z,14.63
2019-03-27T22:34:09.353Z,10.50
2019-03-27T22:37:01.200Z,13.28
2019-03-27T22:39:45.392Z,10.70
2019-03-27T22:42:36.994Z,11.78
2019-03-27T22:45:23.379Z,11.00
2019-03-27T22:48:06.975Z,16.95
2019-03-27T22:50:59.068Z,10.75
2019-03-27T22:53:43.259Z,14.45
2019-03-27T22:56:35.919Z,12.80
2019-03-27T22:59:21.196Z,14.45
2019-03-27T23:02:13.258Z,12.90
2019-03-27T23:04:57.663Z,15.30
2019-03-27T23:07:49.318Z,11.95
2019-03-27T23:10:33.038Z,13.10
2019-03-27T23:13:17.311Z,12.60
2019-03-27T23:16:09.934Z,15.20
2019-03-27T23:18:54.172Z,16.73
2019-03-27T23:21:46.154Z,14.20
2019-03-27T23:24:30.082Z,12.13
2019-03-27T23:27:21.729Z,14.18
2019-03-27T23:30:07.103Z,14.60
2019-03-27T23:32:58.939Z,11.85
2019-03-27T23:35:44.113Z,15.38
2019-03-27T23:38:36.058Z,10.35
2019-03-27T23:41:20.406Z,12.55
2019-03-27T23:44:12.038Z,12.58
2019-03-27T23:46:57.676Z,13.20
2019-03-27T23:49:42.040Z,13.28
2019-03-27T23:52:25.580Z,12.37
2019-03-27T23:55:17.272Z,12.98
2019-03-27T23:57:50.148Z,13.50
